Time;durP1;ratioP1;P1;durP2;ratioP2;P2;SDS_P1;SDS_P2;PMS_P1;PMS_P2;Temp;Humidity;BMP_temperature;BMP_pressure;BME280_temperature;BME280_humidity;BME280_pressure;Samples;Min_cycle;Max_cycle;Signal;HPM_P1;HPM_P2
2022/01/19 00:02:23;;;;;;;17.23;7.10;;;;;;;-0.56;81.21;97775.19;5027668;28;20049;-70
2022/01/19 00:04:49;;;;;;;14.63;7.05;;;;;;;-0.54;81.19;97770.44;5027982;28;20053;-70
2022/01/19 00:07:16;;;;;;;12.23;6.50;;;;;;;-0.51;80.97;97761.19;5027355;28;20057;-69
2022/01/19 00:09:43;;;;;;;17.33;7.55;;;;;;;-0.44;80.24;97753.13;5028036;28;20052;-70
2022/01/19 00:12:10;;;;;;;18.75;7.07;;;;;;;-0.42;79.36;97759.88;5026629;28;20504;-70
2022/01/19 00:14:36;;;;;;;16.23;7.45;;;;;;;-0.45;79.40;97776.38;5027896;28;20045;-70
2022/01/19 00:17:03;;;;;;;15.95;7.03;;;;;;;-0.51;79.90;97779.91;5027032;28;20065;-70
2022/01/19 00:19:29;;;;;;;13.75;6.60;;;;;;;-0.55;80.10;97784.84;5027764;28;20588;-70
2022/01/19 00:21:56;;;;;;;15.45;8.52;;;;;;;-0.59;79.90;97782.81;5027662;28;20049;-70
2022/01/19 00:24:22;;;;;;;13.82;7.18;;;;;;;-0.64;79.93;97770.06;5026773;28;20068;-70
2022/01/19 00:26:50;;;;;;;16.35;7.50;;;;;;;-0.64;80.15;97790.66;5027677;28;20045;-70
2022/01/19 00:29:17;;;;;;;15.43;8.93;;;;;;;-0.60;79.94;97791.88;5027242;28;20048;-70
2022/01/19 00:31:43;;;;;;;16.45;7.93;;;;;;;-0.65;79.74;97797.03;5027362;28;20082;-70
2022/01/19 00:34:10;;;;;;;17.05;8.02;;;;;;;-0.67;79.49;97797.25;5027119;28;20057;-70
2022/01/19 00:36:36;;;;;;;13.43;7.47;;;;;;;-0.70;79.49;97792.31;5027962;28;20045;-70
2022/01/19 00:39:03;;;;;;;17.17;8.95;;;;;;;-0.68;79.18;97789.44;5027187;28;20061;-70
2022/01/19 00:41:30;;;;;;;14.05;8.45;;;;;;;-0.69;79.08;97798.50;5027454;28;20131;-70
2022/01/19 00:43:58;;;;;;;19.95;9.65;;;;;;;-0.76;78.98;97798.53;5027891;28;20064;-70
2022/01/19 00:46:24;;;;;;;18.27;9.15;;;;;;;-0.79;79.24;97789.03;5027021;28;20049;-70
2022/01/19 00:48:51;;;;;;;24.75;10.80;;;;;;;-0.81;79.53;97782.28;5027820;28;20045;-70
2022/01/19 00:51:17;;;;;;;23.67;11.18;;;;;;;-0.85;79.84;97779.19;5026692;28;20061;-72
2022/01/19 00:53:44;;;;;;;15.93;9.63;;;;;;;-0.86;79.92;97776.75;5027507;28;20056;-69
2022/01/19 00:56:10;;;;;;;20.45;10.48;;;;;;;-0.93;79.90;97771.41;5026844;28;20144;-71
2022/01/19 00:58:36;;;;;;;23.02;11.57;;;;;;;-0.97;80.09;97758.69;5027250;28;20050;-71
2022/01/19 01:01:04;;;;;;;26.52;11.93;;;;;;;-1.04;80.49;97748.00;5026343;28;20073;-69
2022/01/19 01:03:31;;;;;;;22.10;11.60;;;;;;;-1.08;80.96;97742.25;5027148;28;20774;-71
2022/01/19 01:05:57;;;;;;;25.90;11.50;;;;;;;-1.10;81.08;97740.81;5027037;28;20042;-71
2022/01/19 01:08:24;;;;;;;24.02;12.32;;;;;;;-1.11;81.74;97731.16;5026354;28;20049;-72
2022/01/19 01:10:51;;;;;;;24.05;11.40;;;;;;;-1.09;82.19;97723.75;5026878;28;20064;-72
2022/01/19 01:13:23;;;;;;;19.50;9.93;;;;;;;-1.07;82.39;97716.34;5026156;28;20495;-72
2022/01/19 01:16:02;;;;;;;18.42;9.50;;;;;;;-1.05;82.54;97715.06;5026585;28;20128;-71
2022/01/19 01:18:31;;;;;;;20.98;10.15;;;;;;;-1.00;82.40;97706.44;5026779;28;20049;-71
2022/01/19 01:20:59;;;;;;;26.42;9.65;;;;;;;-0.98;82.34;97706.25;5026794;28;20050;-72
2022/01/19 01:23:27;;;;;;;21.85;9.25;;;;;;;-0.95;82.11;97693.25;5027507;28;20049;-72
2022/01/19 01:25:54;;;;;;;19.67;8.98;;;;;;;-0.92;82.07;97687.50;5030382;28;20046;-71
2022/01/19 01:28:21;;;;;;;19.50;9.07;;;;;;;-0.88;81.92;97678.00;5029512;28;20404;-71
2022/01/19 01:30:48;;;;;;;26.40;9.02;;;;;;;-0.89;81.72;97673.72;5030265;28;20046;-71
2022/01/19 01:33:15;;;;;;;18.55;7.85;;;;;;;-0.86;81.49;97667.91;5029805;28;20050;-72
2022/01/19 01:35:43;;;;;;;15.95;7.47;;;;;;;-0.88;81.41;97672.66;5030388;28;20053;-71
2022/01/19 01:38:10;;;;;;;15.30;7.25;;;;;;;-0.91;81.23;97674.94;5029973;28;20046;-71
2022/01/19 01:40:38;;;;;;;16.58;7.00;;;;;;;-0.95;81.29;97669.19;5030074;28;20042;-71
2022/01/19 01:43:06;;;;;;;15.45;6.80;;;;;;;-0.93;81.41;97661.78;5029873;28;20069;-71
2022/01/19 01:45:36;;;;;;;15.50;6.35;;;;;;;-0.90;81.48;97660.53;5029826;28;20420;-71
2022/01/19 01:48:08;;;;;;;14.50;6.35;;;;;;;-0.92;81.43;97666.09;5029702;28;20061;-72
2022/01/19 01:53:29;;;;;;;13.50;5.97;;;;;;;-0.89;81.48;97651.47;5029433;28;20056;-72
2022/01/19 01:55:58;;;;;;;9.50;5.05;;;;;;;-0.89;81.69;97644.28;5028734;28;20133;-72
2022/01/19 01:58:25;;;;;;;14.10;4.95;;;;;;;-0.86;81.63;97640.34;5029194;28;20050;-70
2022/01/19 02:00:51;;;;;;;12.32;4.93;;;;;;;-0.85;81.54;97620.59;5029338;28;20440;-72
2022/01/19 02:03:18;;;;;;;14.68;4.50;;;;;;;-0.85;81.38;97613.38;5029570;28;20057;-71
2022/01/19 02:06:02;;;;;;;10.63;5.28;;;;;;;-0.84;81.30;97603.50;5029934;28;20045;-71
2022/01/19 02:08:37;;;;;;;13.63;5.32;;;;;;;-0.85;81.43;97592.00;5029783;28;20046;-72
2022/01/19 02:11:28;;;;;;;12.70;4.93;;;;;;;-0.87;81.43;97591.41;5028902;28;20053;-71
2022/01/19 02:16:46;;;;;;;16.30;8.13;;;;;;;-0.84;81.63;97582.13;5029348;28;20516;-71
2022/01/19 02:22:00;;;;;;;17.95;8.55;;;;;;;-0.83;81.38;97557.84;5029703;28;20603;-72
2022/01/19 02:24:31;;;;;;;19.42;9.57;;;;;;;-0.84;81.48;97550.84;5029370;28;20045;-72
2022/01/19 02:27:06;;;;;;;22.23;9.73;;;;;;;-0.83;81.50;97547.16;5029807;28;20049;-70
2022/01/19 02:40:35;;;;;;;15.07;7.88;;;;;;;-0.86;81.51;97525.38;5028865;28;20072;-70
2022/01/19 02:43:08;;;;;;;19.15;8.20;;;;;;;-0.87;81.75;97524.56;5028659;28;20594;-70
2022/01/19 02:51:07;;;;;;;18.23;7.97;;;;;;;-0.94;81.78;97494.38;5028543;28;20053;-69
2022/01/19 02:53:36;;;;;;;16.02;7.45;;;;;;;-0.97;81.99;97500.16;5029049;28;20049;-71
2022/01/19 02:56:09;;;;;;;17.95;8.02;;;;;;;-1.01;82.26;97496.25;5028351;28;20492;-71
2022/01/19 02:58:41;;;;;;;16.10;8.97;;;;;;;-1.03;82.35;97492.19;5029132;28;20049;-72
2022/01/19 03:09:21;;;;;;;21.17;9.25;;;;;;;-1.14;83.00;97474.97;5028198;28;20056;-71
2022/01/19 03:11:48;;;;;;;20.63;9.75;;;;;;;-1.17;83.08;97476.22;5028042;28;20052;-71
2022/01/19 03:14:15;;;;;;;18.25;9.13;;;;;;;-1.20;82.90;97476.66;5028307;28;20416;-72
2022/01/19 03:16:42;;;;;;;19.98;9.48;;;;;;;-1.19;83.03;97461.44;5027802;28;20579;-71
2022/01/19 03:19:10;;;;;;;18.23;10.18;;;;;;;-1.22;83.01;97468.03;5028364;28;20152;-72
2022/01/19 03:21:36;;;;;;;21.13;10.68;;;;;;;-1.20;83.04;97470.47;5028394;28;20060;-71
2022/01/19 03:24:04;;;;;;;19.55;11.45;;;;;;;-1.23;83.03;97469.06;5027944;28;20057;-72
2022/01/19 03:26:32;;;;;;;19.33;11.30;;;;;;;-1.25;83.22;97467.63;5028343;28;20057;-72
2022/01/19 03:28:58;;;;;;;23.10;12.15;;;;;;;-1.26;83.28;97466.00;5028650;28;20411;-71
2022/01/19 03:31:25;;;;;;;26.50;13.07;;;;;;;-1.27;83.27;97475.88;5027369;28;20057;-71
2022/01/19 03:33:52;;;;;;;29.83;13.65;;;;;;;-1.32;83.45;97471.16;5028265;28;20052;-72
2022/01/19 03:36:18;;;;;;;28.73;14.15;;;;;;;-1.33;83.63;97477.53;5027729;28;20041;-72
2022/01/19 03:38:45;;;;;;;25.95;13.57;;;;;;;-1.32;83.55;97468.50;5027924;28;20045;-72
2022/01/19 03:41:11;;;;;;;30.60;13.77;;;;;;;-1.27;83.47;97472.38;5027430;28;20145;-71
2022/01/19 03:43:39;;;;;;;29.95;14.50;;;;;;;-1.23;82.95;97470.91;5026772;28;20056;-72
2022/01/19 03:46:13;;;;;;;27.25;14.00;;;;;;;-1.21;82.82;97474.19;5024768;28;20041;-71
2022/01/19 03:48:45;;;;;;;27.92;14.13;;;;;;;-1.21;82.34;97471.50;5026966;28;20053;-72
2022/01/19 03:51:12;;;;;;;17.08;9.73;;;;;;;-1.20;82.04;97465.13;5027324;28;20062;-72
2022/01/19 03:53:39;;;;;;;22.65;13.45;;;;;;;-1.23;81.85;97468.25;5027919;28;20049;-72
2022/01/19 03:56:06;;;;;;;25.70;13.77;;;;;;;-1.26;81.75;97460.66;5027381;28;20053;-72
2022/01/19 03:58:33;;;;;;;27.55;14.43;;;;;;;-1.28;81.65;97474.22;5028299;28;20057;-72
2022/01/19 04:01:02;;;;;;;25.95;14.07;;;;;;;-1.26;81.49;97471.34;5027575;28;20053;-72
2022/01/19 04:03:42;;;;;;;28.02;14.50;;;;;;;-1.25;81.15;97475.63;5027411;28;20045;-72
2022/01/19 04:06:17;;;;;;;28.63;13.63;;;;;;;-1.24;80.91;97480.78;5027517;28;20060;-72
2022/01/19 04:08:44;;;;;;;30.15;14.60;;;;;;;-1.25;80.55;97486.31;5028051;28;20047;-72
2022/01/19 04:11:10;;;;;;;29.13;14.10;;;;;;;-1.30;80.90;97483.50;5026772;28;20053;-72
2022/01/19 04:13:58;;;;;;;22.88;14.13;;;;;;;-1.33;81.22;97480.22;5027618;28;20059;-72
2022/01/19 04:16:26;;;;;;;24.15;13.80;;;;;;;-1.39;81.40;97475.75;5027590;28;20325;-72
2022/01/19 04:19:01;;;;;;;24.42;13.57;;;;;;;-1.41;81.70;97483.16;5027578;28;20500;-72
2022/01/19 04:21:28;;;;;;;26.65;14.50;;;;;;;-1.41;81.38;97488.50;5007298;28;20486;-71
2022/01/19 04:23:54;;;;;;;22.02;13.50;;;;;;;-1.44;81.77;97486.25;5007877;28;20567;-72
2022/01/19 04:26:21;;;;;;;26.90;13.60;;;;;;;-1.49;81.79;97483.41;5007473;28;20049;-72
2022/01/19 04:28:47;;;;;;;26.17;13.60;;;;;;;-1.49;82.05;97488.75;5007890;28;20050;-72
2022/01/19 04:31:14;;;;;;;23.50;13.25;;;;;;;-1.48;82.02;97489.56;5007287;28;20057;-71
2022/01/19 04:33:43;;;;;;;23.20;12.82;;;;;;;-1.58;82.88;97487.34;5008144;28;20515;-71
2022/01/19 04:36:26;;;;;;;26.20;12.68;;;;;;;-1.65;83.12;97491.91;5007496;28;20057;-72
2022/01/19 04:39:20;;;;;;;23.25;12.77;;;;;;;-1.66;83.47;97492.94;5007534;28;20049;-72
2022/01/19 04:44:57;;;;;;;23.40;12.20;;;;;;;-1.71;83.81;97492.75;5006650;28;20049;-71
2022/01/19 04:48:02;;;;;;;24.30;12.70;;;;;;;-1.72;84.10;97485.75;5007193;28;20457;-72
2022/01/19 05:01:48;;;;;;;31.58;13.43;;;;;;;-1.78;83.85;97473.25;5010398;28;20076;-72
2022/01/19 05:04:23;;;;;;;22.67;12.13;;;;;;;-1.79;83.68;97471.63;5010456;28;20133;-72
2022/01/19 05:07:03;;;;;;;29.40;13.82;;;;;;;-1.78;83.58;97475.91;5011109;28;20057;-72
2022/01/19 05:09:54;;;;;;;30.08;14.77;;;;;;;-1.78;83.63;97473.25;5011079;28;20049;-73
2022/01/19 05:15:04;;;;;;;25.05;12.70;;;;;;;-1.81;83.27;97479.03;5011255;28;20091;-72
2022/01/19 05:17:31;;;;;;;26.05;14.05;;;;;;;-1.80;83.13;97472.66;5010814;28;20131;-72
2022/01/19 05:19:57;;;;;;;26.08;13.32;;;;;;;-1.86;83.02;97475.13;5010795;28;20056;-72
2022/01/19 05:22:25;;;;;;;23.52;13.25;;;;;;;-1.86;82.93;97477.81;5010127;28;20489;-72
2022/01/19 05:24:52;;;;;;;28.15;14.50;;;;;;;-1.86;83.03;97467.13;5010870;28;20077;-72
2022/01/19 05:27:21;;;;;;;29.23;14.57;;;;;;;-1.82;83.33;97475.53;5010491;28;20065;-72
2022/01/19 05:29:47;;;;;;;31.48;14.20;;;;;;;-1.74;83.58;97477.16;5010955;28;20516;-72
2022/01/19 05:32:14;;;;;;;25.10;13.90;;;;;;;-1.60;83.41;97479.53;5010204;28;20053;-72
2022/01/19 05:34:40;;;;;;;27.92;13.82;;;;;;;-1.51;83.05;97485.47;5010435;28;20493;-72
2022/01/19 05:37:07;;;;;;;24.95;13.07;;;;;;;-1.44;83.03;97486.25;5009906;28;20058;-72
2022/01/19 05:39:35;;;;;;;28.35;12.90;;;;;;;-1.36;83.34;97479.81;5010621;28;20046;-72
2022/01/19 05:42:02;;;;;;;24.42;12.48;;;;;;;-1.31;83.44;97480.00;5009930;28;20053;-72
2022/01/19 05:44:28;;;;;;;25.45;12.07;;;;;;;-1.26;83.47;97479.34;5010092;28;20046;-72
2022/01/19 05:46:55;;;;;;;21.08;11.73;;;;;;;-1.15;83.46;97473.31;5017302;28;20048;-72
2022/01/19 05:49:21;;;;;;;22.15;11.02;;;;;;;-1.08;83.28;97463.41;5030023;28;20052;-72
2022/01/19 05:51:48;;;;;;;25.08;12.27;;;;;;;-0.97;83.43;97454.69;5029841;28;20050;-72
2022/01/19 05:54:17;;;;;;;23.92;11.65;;;;;;;-0.93;82.88;97450.56;5029867;28;20107;-72
2022/01/19 05:56:45;;;;;;;22.48;12.07;;;;;;;-0.94;82.56;97443.56;5029966;28;20049;-72
2022/01/19 05:59:12;;;;;;;28.40;13.48;;;;;;;-0.91;82.42;97442.31;5029767;28;20049;-72
2022/01/19 06:01:38;;;;;;;29.10;14.52;;;;;;;-0.93;82.18;97423.00;5029531;28;20058;-72
2022/01/19 06:04:05;;;;;;;34.03;15.68;;;;;;;-0.92;82.12;97430.78;5029527;28;20053;-71
2022/01/19 06:06:32;;;;;;;24.50;13.13;;;;;;;-0.96;82.11;97429.59;5030102;28;20045;-72
2022/01/19 06:09:09;;;;;;;27.65;12.85;;;;;;;-0.92;82.22;97421.97;5029703;28;20049;-72
2022/01/19 06:11:35;;;;;;;25.75;14.20;;;;;;;-0.94;82.44;97411.50;5028605;28;20145;-72
2022/01/19 06:14:03;;;;;;;24.95;13.45;;;;;;;-0.92;83.27;97393.34;5028150;28;20580;-72
2022/01/19 06:16:30;;;;;;;26.55;14.10;;;;;;;-0.84;82.67;97390.38;5029765;28;20052;-72
2022/01/19 06:18:56;;;;;;;27.55;13.48;;;;;;;-0.79;82.65;97379.03;5029871;28;20056;-72
2022/01/19 06:21:23;;;;;;;30.10;15.13;;;;;;;-0.75;82.87;97377.56;5028304;28;20382;-72
2022/01/19 06:23:49;;;;;;;32.22;15.50;;;;;;;-0.68;82.93;97367.63;5029315;28;20045;-71
2022/01/19 06:26:16;;;;;;;34.03;16.52;;;;;;;-0.60;82.65;97363.84;5028817;28;20049;-72
2022/01/19 06:28:42;;;;;;;28.38;14.00;;;;;;;-0.65;82.93;97377.06;5029484;28;20046;-72
2022/01/19 06:31:10;;;;;;;29.85;15.15;;;;;;;-0.62;83.10;97393.50;5028274;28;20045;-72
2022/01/19 06:33:36;;;;;;;30.63;13.95;;;;;;;-0.55;83.21;97388.88;5028325;28;20798;-71
2022/01/19 06:36:03;;;;;;;29.13;14.48;;;;;;;-0.49;83.20;97392.53;5028934;28;20057;-72
2022/01/19 06:38:30;;;;;;;27.52;14.15;;;;;;;-0.44;82.83;97395.34;5028881;28;20056;-76
2022/01/19 06:40:57;;;;;;;29.10;14.10;;;;;;;-0.40;82.45;97396.56;5028491;28;20045;-77
2022/01/19 06:43:23;;;;;;;25.80;13.77;;;;;;;-0.38;82.29;97399.00;5028801;28;20049;-72
2022/01/19 06:45:50;;;;;;;29.10;13.68;;;;;;;-0.35;82.31;97395.88;5030005;28;20080;-72
2022/01/19 06:48:17;;;;;;;29.48;14.18;;;;;;;-0.27;82.44;97401.75;5028545;28;20064;-72
2022/01/19 06:50:44;;;;;;;31.17;14.00;;;;;;;-0.23;82.11;97401.31;5028668;28;20045;-71
2022/01/19 06:53:10;;;;;;;23.92;13.45;;;;;;;-0.19;82.30;97391.78;5028294;28;20045;-72
2022/01/19 06:55:37;;;;;;;31.70;13.43;;;;;;;-0.15;82.34;97390.31;5029405;28;20053;-71
2022/01/19 06:58:04;;;;;;;28.77;14.45;;;;;;;-0.18;81.75;97393.44;5026277;28;20435;-70
2022/01/19 07:00:30;;;;;;;31.27;14.52;;;;;;;-0.19;82.00;97391.78;5028615;28;20501;-69
2022/01/19 07:02:57;;;;;;;32.17;14.88;;;;;;;-0.20;82.01;97395.53;5028056;28;20057;-70
2022/01/19 07:05:25;;;;;;;31.83;14.70;;;;;;;-0.24;82.01;97389.78;5028137;28;20049;-70
2022/01/19 07:07:56;;;;;;;27.73;13.63;;;;;;;-0.24;82.45;97395.13;5028823;28;20053;-70
2022/01/19 07:10:23;;;;;;;27.15;14.18;;;;;;;-0.24;82.39;97387.09;5028030;28;20619;-70
2022/01/19 07:12:49;;;;;;;27.85;14.38;;;;;;;-0.19;82.65;97389.13;5028685;28;20053;-70
2022/01/19 07:15:16;;;;;;;32.25;14.95;;;;;;;-0.18;82.89;97393.44;5028132;28;20045;-70
2022/01/19 07:17:43;;;;;;;32.92;14.93;;;;;;;-0.15;82.53;97384.97;5028635;28;20056;-70
2022/01/19 07:20:10;;;;;;;32.15;14.30;;;;;;;-0.17;82.56;97376.31;5027420;28;20764;-70
2022/01/19 07:22:38;;;;;;;29.70;14.27;;;;;;;-0.19;82.34;97381.91;5027811;28;20045;-69
2022/01/19 07:25:05;;;;;;;31.63;15.23;;;;;;;-0.16;82.61;97383.31;5027799;28;20046;-70
2022/01/19 07:27:32;;;;;;;31.40;15.10;;;;;;;-0.11;82.55;97378.09;5028439;28;20076;-70
2022/01/19 07:29:58;;;;;;;31.83;15.32;;;;;;;-0.09;82.38;97365.31;5028586;28;20049;-70
2022/01/19 07:32:29;;;;;;;32.58;14.60;;;;;;;-0.13;82.02;97366.81;5027669;28;20511;-69
2022/01/19 07:34:56;;;;;;;31.13;14.48;;;;;;;-0.18;82.11;97375.50;5028255;28;20844;-69
2022/01/19 07:37:22;;;;;;;28.83;14.23;;;;;;;-0.19;82.21;97367.72;5027590;28;20064;-70
2022/01/19 07:39:50;;;;;;;27.75;13.73;;;;;;;-0.21;82.36;97361.75;5027987;28;20068;-70
2022/01/19 07:42:17;;;;;;;32.30;14.65;;;;;;;-0.23;82.27;97364.66;5027352;28;20520;-70
2022/01/19 07:44:43;;;;;;;31.63;14.05;;;;;;;-0.27;82.70;97363.47;5027931;28;20055;-69
2022/01/19 07:47:10;;;;;;;30.27;14.85;;;;;;;-0.26;82.67;97370.47;5027425;28;20054;-69
2022/01/19 07:49:36;;;;;;;31.38;14.40;;;;;;;-0.18;82.75;97372.81;5027787;28;20045;-69
2022/01/19 07:52:03;;;;;;;31.92;14.82;;;;;;;-0.23;82.59;97370.00;5027287;28;20057;-70
2022/01/19 07:54:30;;;;;;;27.10;13.45;;;;;;;-0.19;82.97;97367.72;5027754;28;20052;-70
2022/01/19 07:56:57;;;;;;;27.05;14.20;;;;;;;-0.23;83.19;97369.19;5027762;28;20049;-71
2022/01/19 07:59:24;;;;;;;31.23;13.70;;;;;;;-0.29;83.01;97371.72;5018937;28;20045;-71
2022/01/19 08:01:53;;;;;;;27.35;13.20;;;;;;;-0.20;83.38;97371.44;5027367;28;20053;-69
2022/01/19 08:04:19;;;;;;;34.00;13.13;;;;;;;-0.25;83.37;97371.28;5027352;28;20436;-69
2022/01/19 08:06:47;;;;;;;32.28;13.57;;;;;;;-0.34;83.70;97363.53;5028018;28;20049;-70
2022/01/19 08:09:14;;;;;;;25.15;11.98;;;;;;;-0.35;84.17;97361.91;5026890;28;20048;-69
2022/01/19 08:11:40;;;;;;;27.17;12.90;;;;;;;-0.33;84.59;97350.97;5027449;28;20779;-70
2022/01/19 08:14:08;;;;;;;26.17;12.30;;;;;;;-0.28;84.77;97351.94;5019032;28;20058;-70
2022/01/19 08:16:35;;;;;;;29.23;12.70;;;;;;;-0.19;84.77;97352.47;5027654;28;20052;-71
2022/01/19 08:19:01;;;;;;;26.50;11.93;;;;;;;-0.12;84.54;97349.69;5027833;28;20049;-70
2022/01/19 08:21:28;;;;;;;29.90;13.73;;;;;;;-0.04;84.14;97341.34;5018843;28;20563;-70
2022/01/19 08:23:54;;;;;;;25.38;13.25;;;;;;;0.03;84.11;97342.06;5027777;28;20050;-70
2022/01/19 08:26:21;;;;;;;27.17;13.43;;;;;;;0.13;84.02;97345.03;5027326;28;20048;-70
2022/01/19 08:28:48;;;;;;;26.08;14.07;;;;;;;0.20;83.56;97334.22;5027636;28;20052;-71
2022/01/19 08:31:15;;;;;;;31.25;14.25;;;;;;;0.27;83.24;97342.19;5026863;28;20046;-71
2022/01/19 08:33:42;;;;;;;28.88;13.52;;;;;;;0.20;82.10;97343.06;5029247;28;20047;-71
2022/01/19 08:36:08;;;;;;;31.05;13.10;;;;;;;0.11;82.12;97344.44;5031307;28;20041;-71
2022/01/19 08:38:36;;;;;;;29.13;13.38;;;;;;;0.09;82.46;97348.38;5031369;28;20057;-70
2022/01/19 08:41:03;;;;;;;28.98;13.88;;;;;;;-0.04;82.60;97342.19;5030925;28;20057;-71
2022/01/19 08:43:29;;;;;;;32.00;14.75;;;;;;;-0.04;83.39;97330.66;5031365;28;20096;-70
2022/01/19 08:45:57;;;;;;;30.10;14.05;;;;;;;-0.07;83.45;97331.91;5031031;28;20532;-70
2022/01/19 08:48:26;;;;;;;36.28;14.10;;;;;;;-0.07;83.59;97336.44;5029514;28;20064;-71
2022/01/19 08:50:53;;;;;;;27.08;13.35;;;;;;;-0.01;83.65;97343.56;5030469;28;20052;-70
2022/01/19 08:53:20;;;;;;;31.83;14.15;;;;;;;0.01;84.06;97348.72;5030935;28;20057;-70
2022/01/19 08:55:46;;;;;;;27.42;13.45;;;;;;;-0.04;83.89;97352.88;5031534;28;20054;-70
2022/01/19 08:58:14;;;;;;;29.92;13.07;;;;;;;-0.13;84.07;97348.06;5030725;28;20587;-70
2022/01/19 09:00:41;;;;;;;30.80;14.13;;;;;;;-0.20;84.51;97348.16;5030982;28;20055;-70
2022/01/19 09:03:08;;;;;;;27.20;13.80;;;;;;;-0.31;85.07;97336.34;5030912;28;20802;-70
2022/01/19 09:05:36;;;;;;;35.40;14.27;;;;;;;-0.28;85.55;97343.91;5031008;28;20049;-70
2022/01/19 09:08:03;;;;;;;32.10;14.23;;;;;;;-0.20;85.91;97337.44;5030589;28;20060;-70
2022/01/19 09:10:29;;;;;;;28.90;13.75;;;;;;;-0.13;85.58;97332.81;5030609;28;20049;-70
2022/01/19 09:12:56;;;;;;;32.08;14.13;;;;;;;-0.11;85.08;97313.84;5030866;28;20051;-69
2022/01/19 09:15:23;;;;;;;30.65;14.80;;;;;;;-0.01;85.24;97308.75;5030346;28;20053;-69
2022/01/19 09:17:50;;;;;;;30.80;14.73;;;;;;;0.11;85.04;97306.16;5030922;28;20056;-70
2022/01/19 09:20:17;;;;;;;32.42;13.73;;;;;;;0.18;84.52;97299.63;5030411;28;20669;-71
2022/01/19 09:22:45;;;;;;;28.27;13.23;;;;;;;0.28;84.53;97300.94;5030143;28;20041;-70
2022/01/19 09:25:12;;;;;;;31.85;14.23;;;;;;;0.34;84.00;97300.03;5030207;28;20056;-70
2022/01/19 09:27:39;;;;;;;30.15;13.88;;;;;;;0.40;83.51;97305.28;5030664;28;20052;-70
2022/01/19 09:30:07;;;;;;;29.98;13.73;;;;;;;0.40;82.89;97304.47;5030234;28;20056;-70
2022/01/19 09:32:34;;;;;;;31.33;14.45;;;;;;;0.45;83.00;97304.59;5030181;28;20055;-69
2022/01/19 09:35:06;;;;;;;28.05;13.73;;;;;;;0.49;82.84;97297.72;5030623;28;20053;-70
2022/01/19 09:37:34;;;;;;;23.63;10.68;;;;;;;0.50;82.63;97300.16;5030108;28;20053;-70
2022/01/19 09:40:04;;;;;;;34.10;13.15;;;;;;;0.52;82.54;97291.88;5030288;28;20048;-70
2022/01/19 09:42:30;;;;;;;29.80;14.18;;;;;;;0.57;82.93;97288.53;5029710;28;20051;-70
2022/01/19 09:44:57;;;;;;;30.05;13.63;;;;;;;0.61;82.79;97287.84;5030391;28;20045;-70
2022/01/19 09:47:25;;;;;;;25.60;12.90;;;;;;;0.62;81.89;97277.91;5029731;28;20053;-70
2022/01/19 09:49:51;;;;;;;31.13;14.55;;;;;;;0.64;82.08;97276.66;5030178;28;20050;-70
2022/01/19 09:52:18;;;;;;;28.17;13.77;;;;;;;0.72;82.42;97287.03;5029755;28;20053;-70
2022/01/19 09:54:44;;;;;;;31.10;13.40;;;;;;;0.81;81.68;97275.97;5030646;28;20054;-70
2022/01/19 09:57:12;;;;;;;26.00;13.13;;;;;;;0.80;81.22;97279.69;5029790;28;20050;-69
2022/01/19 09:59:39;;;;;;;29.42;14.15;;;;;;;0.82;80.82;97278.41;5030252;28;20067;-70
2022/01/19 10:02:07;;;;;;;30.35;14.75;;;;;;;0.74;80.44;97268.84;5029442;28;20053;-70
2022/01/19 10:04:36;;;;;;;29.60;14.23;;;;;;;0.74;80.98;97266.19;5030128;28;20048;-70
2022/01/19 10:07:14;;;;;;;29.92;13.43;;;;;;;0.71;80.89;97269.31;5029791;28;20064;-70
2022/01/19 10:09:48;;;;;;;30.45;14.63;;;;;;;0.69;81.42;97249.16;5029785;28;20419;-70
2022/01/19 10:17:56;;;;;;;31.67;14.40;;;;;;;0.80;82.13;97234.94;5030059;28;20048;-72
2022/01/19 10:20:24;;;;;;;32.28;14.75;;;;;;;0.86;81.22;97230.50;5028920;28;20544;-71
2022/01/19 10:22:50;;;;;;;33.63;14.50;;;;;;;0.89;81.64;97222.81;5029440;28;20049;-70
2022/01/19 10:25:17;;;;;;;31.90;14.60;;;;;;;1.00;81.49;97221.97;5028901;28;20508;-71
2022/01/19 10:27:46;;;;;;;29.58;13.77;;;;;;;1.14;81.54;97219.03;5029748;28;20052;-71
2022/01/19 10:30:25;;;;;;;25.73;14.18;;;;;;;1.18;80.20;97212.94;5028960;28;20111;-71
2022/01/19 10:32:56;;;;;;;28.50;14.05;;;;;;;1.25;79.21;97204.75;5029343;28;20107;-72
2022/01/19 10:35:25;;;;;;;29.15;14.93;;;;;;;1.24;78.51;97206.63;5029004;28;20107;-71
2022/01/19 10:38:12;;;;;;;28.48;14.20;;;;;;;1.30;78.87;97207.53;5029269;28;20397;-70
2022/01/19 10:40:42;;;;;;;28.33;14.50;;;;;;;1.36;78.86;97187.00;5028850;28;20045;-73
2022/01/19 10:43:32;;;;;;;31.90;14.82;;;;;;;1.51;79.07;97181.91;5028658;28;20045;-72
2022/01/19 10:46:23;;;;;;;28.90;14.90;;;;;;;1.54;78.00;97178.75;5029166;28;20045;-71
2022/01/19 10:48:57;;;;;;;31.10;14.20;;;;;;;1.69;78.51;97172.88;5029230;28;20119;-71
2022/01/19 10:51:24;;;;;;;30.30;14.15;;;;;;;1.79;77.46;97173.84;5028443;28;20069;-71
2022/01/19 10:54:10;;;;;;;28.25;13.65;;;;;;;1.93;76.67;97162.78;5029220;28;20104;-71
2022/01/19 10:56:37;;;;;;;28.83;12.63;;;;;;;1.94;76.03;97159.06;5028380;28;20412;-70
2022/01/19 10:59:07;;;;;;;24.70;13.35;;;;;;;2.22;75.81;97156.31;5028548;28;20065;-72
2022/01/19 11:01:41;;;;;;;28.48;13.32;;;;;;;2.02;74.56;97161.34;5028767;28;20060;-72
2022/01/19 11:04:25;;;;;;;25.45;12.48;;;;;;;1.88;75.51;97165.38;5028744;28;20049;-72
2022/01/19 11:06:54;;;;;;;24.77;12.50;;;;;;;2.26;75.44;97152.06;5029095;28;20041;-71
2022/01/19 11:09:25;;;;;;;24.20;12.77;;;;;;;2.70;76.40;97152.16;5028379;28;20413;-72
2022/01/19 11:11:53;;;;;;;25.08;12.48;;;;;;;3.18;73.85;97153.31;5028551;28;20049;-70
2022/01/19 11:14:23;;;;;;;22.50;12.98;;;;;;;3.27;70.82;97142.91;5027663;28;20053;-71
2022/01/19 11:16:51;;;;;;;23.08;11.95;;;;;;;3.26;70.07;97144.81;5028902;28;20442;-71
2022/01/19 11:19:18;;;;;;;22.25;12.38;;;;;;;3.24;69.83;97141.56;5028104;28;20060;-68
2022/01/19 11:21:56;;;;;;;21.17;12.30;;;;;;;3.24;69.89;97143.44;5028112;28;20457;-69
2022/01/19 11:24:34;;;;;;;24.48;13.38;;;;;;;2.94;70.49;97135.81;5028065;28;20057;-69
2022/01/19 11:27:01;;;;;;;25.33;13.77;;;;;;;2.75;71.83;97133.41;5028644;28;20060;-68
2022/01/19 11:29:30;;;;;;;27.77;14.13;;;;;;;2.81;72.80;97121.66;5028098;28;20041;-69
2022/01/19 11:31:58;;;;;;;26.25;13.48;;;;;;;2.97;72.11;97124.53;5028249;28;20042;-70
2022/01/19 11:34:45;;;;;;;27.85;13.15;;;;;;;3.12;71.71;97113.94;5028020;28;20557;-70
2022/01/19 11:37:11;;;;;;;22.85;12.32;;;;;;;3.06;71.44;97114.97;5027988;28;20099;-69
2022/01/19 11:39:38;;;;;;;24.02;12.60;;;;;;;3.15;72.16;97105.38;5028094;28;20057;-69
2022/01/19 11:42:05;;;;;;;28.55;13.13;;;;;;;3.32;71.62;97097.22;5027591;28;20050;-70
2022/01/19 11:44:41;;;;;;;24.55;12.80;;;;;;;3.62;71.84;97086.75;5028068;28;20045;-70
2022/01/19 11:47:22;;;;;;;23.27;12.60;;;;;;;3.85;71.18;97084.78;5028146;28;20049;-69
2022/01/19 11:49:54;;;;;;;23.70;12.43;;;;;;;4.05;68.75;97081.44;5028039;28;20077;-70
2022/01/19 11:52:24;;;;;;;24.58;12.48;;;;;;;4.23;68.87;97069.44;5027699;28;20060;-70
2022/01/19 11:54:52;;;;;;;20.55;12.65;;;;;;;4.30;67.11;97064.63;5028377;28;20107;-69
2022/01/19 11:57:22;;;;;;;21.27;12.27;;;;;;;4.41;68.01;97064.44;5027971;28;20053;-70
2022/01/19 12:00:13;;;;;;;27.02;12.38;;;;;;;4.42;67.09;97059.84;5028011;28;20685;-70
2022/01/19 12:02:44;;;;;;;20.33;11.25;;;;;;;4.35;68.17;97054.69;5021889;28;20052;-70
2022/01/19 12:05:19;;;;;;;22.88;12.07;;;;;;;4.35;67.22;97049.31;5027240;28;20049;-69
2022/01/19 12:07:48;;;;;;;23.38;12.90;;;;;;;4.29;67.70;97039.56;5027402;28;20417;-69
2022/01/19 12:10:19;;;;;;;25.75;13.77;;;;;;;4.25;66.94;97027.66;5026810;28;20057;-69
2022/01/19 12:12:56;;;;;;;20.75;11.80;;;;;;;4.27;66.93;97022.00;5027925;28;20140;-69
2022/01/19 12:15:53;;;;;;;23.23;12.30;;;;;;;4.27;66.68;97014.72;5027364;28;20060;-70
2022/01/19 12:18:38;;;;;;;22.35;12.88;;;;;;;4.31;67.26;97007.75;5027992;28;20053;-69
2022/01/19 12:21:05;;;;;;;21.55;12.07;;;;;;;4.28;67.02;97000.19;5027067;28;20050;-70
2022/01/19 12:23:34;;;;;;;21.48;12.73;;;;;;;4.28;66.58;97000.19;5028176;28;20056;-69
2022/01/19 12:26:01;;;;;;;26.90;14.20;;;;;;;4.25;66.97;96995.31;5028034;28;20053;-71
2022/01/19 12:28:48;;;;;;;20.88;12.20;;;;;;;4.24;67.04;96999.09;5027632;28;20060;-69